sensor_id;sensor_type;location;lat;lon;timestamp;temperature;humidity
13982;DHT22;7065;50.880;5.502;2022-09-09T00:03:59;15.10;99.90
13982;DHT22;7065;50.880;5.502;2022-09-09T00:06:32;15.10;99.90
13982;DHT22;7065;50.880;5.502;2022-09-09T00:09:08;15.10;99.90
13982;DHT22;7065;50.880;5.502;2022-09-09T00:11:54;15.20;99.90
13982;DHT22;7065;50.880;5.502;2022-09-09T00:17:13;15.10;99.90
13982;DHT22;7065;50.880;5.502;2022-09-09T00:19:47;15.10;99.90
13982;DHT22;7065;50.880;5.502;2022-09-09T00:22:28;15.10;99.90
13982;DHT22;7065;50.880;5.502;2022-09-09T00:25:08;15.00;99.90
13982;DHT22;7065;50.880;5.502;2022-09-09T00:27:45;15.00;99.90
13982;DHT22;7065;50.880;5.502;2022-09-09T00:32:37;14.90;99.90
13982;DHT22;7065;50.880;5.502;2022-09-09T00:35:22;14.80;99.90
13982;DHT22;7065;50.880;5.502;2022-09-09T00:37:50;14.80;99.90
13982;DHT22;7065;50.880;5.502;2022-09-09T00:40:33;14.80;99.90
13982;DHT22;7065;50.880;5.502;2022-09-09T00:48:57;14.60;99.90
13982;DHT22;7065;50.880;5.502;2022-09-09T00:54:15;14.60;99.90
13982;DHT22;7065;50.880;5.502;2022-09-09T01:06:01;14.50;99.90
13982;DHT22;7065;50.880;5.502;2022-09-09T01:11:25;14.40;99.90
13982;DHT22;7065;50.880;5.502;2022-09-09T01:14:01;14.40;99.90
13982;DHT22;7065;50.880;5.502;2022-09-09T01:16:30;14.40;99.90
13982;DHT22;7065;50.880;5.502;2022-09-09T01:18:58;14.40;99.90
13982;DHT22;7065;50.880;5.502;2022-09-09T01:24:37;14.40;99.90
13982;DHT22;7065;50.880;5.502;2022-09-09T01:27:05;14.40;99.90
13982;DHT22;7065;50.880;5.502;2022-09-09T01:29:32;14.40;99.90
13982;DHT22;7065;50.880;5.502;2022-09-09T01:32:01;14.40;99.90
13982;DHT22;7065;50.880;5.502;2022-09-09T01:34:33;14.40;99.90
13982;DHT22;7065;50.880;5.502;2022-09-09T01:37:03;14.40;99.90
13982;DHT22;7065;50.880;5.502;2022-09-09T01:39:32;14.40;99.90
13982;DHT22;7065;50.880;5.502;2022-09-09T01:41:58;14.40;99.90
13982;DHT22;7065;50.880;5.502;2022-09-09T01:44:25;14.40;99.90
13982;DHT22;7065;50.880;5.502;2022-09-09T01:46:52;14.40;99.90
13982;DHT22;7065;50.880;5.502;2022-09-09T01:49:18;14.40;99.90
13982;DHT22;7065;50.880;5.502;2022-09-09T01:51:46;14.40;99.90
13982;DHT22;7065;50.880;5.502;2022-09-09T01:54:14;14.40;99.90
13982;DHT22;7065;50.880;5.502;2022-09-09T01:56:54;14.40;99.90
13982;DHT22;7065;50.880;5.502;2022-09-09T02:02:24;14.50;99.90
13982;DHT22;7065;50.880;5.502;2022-09-09T02:04:56;14.50;99.90
13982;DHT22;7065;50.880;5.502;2022-09-09T02:10:02;14.50;99.90
13982;DHT22;7065;50.880;5.502;2022-09-09T02:12:30;14.50;99.90
13982;DHT22;7065;50.880;5.502;2022-09-09T02:15:03;14.50;99.90
13982;DHT22;7065;50.880;5.502;2022-09-09T02:17:32;14.60;99.90
13982;DHT22;7065;50.880;5.502;2022-09-09T02:20:10;14.60;99.90
13982;DHT22;7065;50.880;5.502;2022-09-09T02:22:40;14.60;99.90
13982;DHT22;7065;50.880;5.502;2022-09-09T02:25:08;14.60;99.90
13982;DHT22;7065;50.880;5.502;2022-09-09T02:27:36;14.60;99.90
13982;DHT22;7065;50.880;5.502;2022-09-09T02:30:03;14.60;99.90
13982;DHT22;7065;50.880;5.502;2022-09-09T02:32:31;14.60;99.90
13982;DHT22;7065;50.880;5.502;2022-09-09T02:35:25;14.60;99.90
13982;DHT22;7065;50.880;5.502;2022-09-09T02:37:58;14.50;99.90
13982;DHT22;7065;50.880;5.502;2022-09-09T02:40:25;14.50;99.90
13982;DHT22;7065;50.880;5.502;2022-09-09T02:42:50;14.50;99.90
13982;DHT22;7065;50.880;5.502;2022-09-09T02:45:19;14.40;99.90
13982;DHT22;7065;50.880;5.502;2022-09-09T02:50:35;14.40;99.90
13982;DHT22;7065;50.880;5.502;2022-09-09T02:56:13;14.40;99.90
13982;DHT22;7065;50.880;5.502;2022-09-09T02:58:41;14.40;99.90
13982;DHT22;7065;50.880;5.502;2022-09-09T03:01:07;14.40;99.90
13982;DHT22;7065;50.880;5.502;2022-09-09T03:03:33;14.40;99.90
13982;DHT22;7065;50.880;5.502;2022-09-09T03:05:59;14.40;99.90
13982;DHT22;7065;50.880;5.502;2022-09-09T03:08:24;14.40;99.90
13982;DHT22;7065;50.880;5.502;2022-09-09T03:10:54;14.40;99.90
13982;DHT22;7065;50.880;5.502;2022-09-09T03:13:20;14.40;99.90
13982;DHT22;7065;50.880;5.502;2022-09-09T03:15:47;14.40;99.90
13982;DHT22;7065;50.880;5.502;2022-09-09T03:18:13;14.40;99.90
13982;DHT22;7065;50.880;5.502;2022-09-09T03:20:39;14.40;99.90
13982;DHT22;7065;50.880;5.502;2022-09-09T03:23:07;14.40;99.90
13982;DHT22;7065;50.880;5.502;2022-09-09T03:25:33;14.40;99.90
13982;DHT22;7065;50.880;5.502;2022-09-09T03:27:59;14.40;99.90
13982;DHT22;7065;50.880;5.502;2022-09-09T03:30:27;14.50;99.90
13982;DHT22;7065;50.880;5.502;2022-09-09T03:32:52;14.40;99.90
13982;DHT22;7065;50.880;5.502;2022-09-09T03:35:19;14.50;99.90
13982;DHT22;7065;50.880;5.502;2022-09-09T03:37:45;14.50;99.90
13982;DHT22;7065;50.880;5.502;2022-09-09T03:40:11;14.50;99.90
13982;DHT22;7065;50.880;5.502;2022-09-09T03:42:38;14.50;99.90
13982;DHT22;7065;50.880;5.502;2022-09-09T03:45:06;14.50;99.90
13982;DHT22;7065;50.880;5.502;2022-09-09T03:47:33;14.60;99.90
13982;DHT22;7065;50.880;5.502;2022-09-09T03:49:59;14.60;99.90
13982;DHT22;7065;50.880;5.502;2022-09-09T03:52:24;14.60;99.90
13982;DHT22;7065;50.880;5.502;2022-09-09T03:54:52;14.70;99.90
13982;DHT22;7065;50.880;5.502;2022-09-09T03:57:18;14.70;99.90
13982;DHT22;7065;50.880;5.502;2022-09-09T03:59:44;14.70;99.90
13982;DHT22;7065;50.880;5.502;2022-09-09T04:02:11;14.70;99.90
13982;DHT22;7065;50.880;5.502;2022-09-09T04:04:36;14.70;99.90
13982;DHT22;7065;50.880;5.502;2022-09-09T04:07:02;14.70;99.90
13982;DHT22;7065;50.880;5.502;2022-09-09T04:09:28;14.70;99.90
13982;DHT22;7065;50.880;5.502;2022-09-09T04:11:54;14.80;99.90
13982;DHT22;7065;50.880;5.502;2022-09-09T04:14:21;14.80;99.90
13982;DHT22;7065;50.880;5.502;2022-09-09T04:16:47;14.90;99.90
13982;DHT22;7065;50.880;5.502;2022-09-09T04:19:13;14.80;99.90
13982;DHT22;7065;50.880;5.502;2022-09-09T04:21:40;14.80;99.90
13982;DHT22;7065;50.880;5.502;2022-09-09T04:24:07;14.70;99.90
13982;DHT22;7065;50.880;5.502;2022-09-09T04:26:34;14.70;99.90
13982;DHT22;7065;50.880;5.502;2022-09-09T04:29:02;14.70;99.90
13982;DHT22;7065;50.880;5.502;2022-09-09T04:31:27;14.80;99.90
13982;DHT22;7065;50.880;5.502;2022-09-09T04:33:53;14.80;99.90
13982;DHT22;7065;50.880;5.502;2022-09-09T04:36:19;14.80;99.90
13982;DHT22;7065;50.880;5.502;2022-09-09T04:38:46;14.80;99.90
13982;DHT22;7065;50.880;5.502;2022-09-09T04:41:12;14.80;99.90
13982;DHT22;7065;50.880;5.502;2022-09-09T04:43:38;14.90;99.90
13982;DHT22;7065;50.880;5.502;2022-09-09T04:46:04;15.00;99.90
13982;DHT22;7065;50.880;5.502;2022-09-09T04:48:31;15.00;99.90
13982;DHT22;7065;50.880;5.502;2022-09-09T04:51:03;15.00;99.90
13982;DHT22;7065;50.880;5.502;2022-09-09T04:53:30;14.90;99.90
13982;DHT22;7065;50.880;5.502;2022-09-09T04:56:13;15.00;99.90
13982;DHT22;7065;50.880;5.502;2022-09-09T04:58:40;14.90;99.90
13982;DHT22;7065;50.880;5.502;2022-09-09T05:03:35;14.90;99.90
13982;DHT22;7065;50.880;5.502;2022-09-09T05:06:08;14.90;99.90
13982;DHT22;7065;50.880;5.502;2022-09-09T05:08:39;14.90;99.90
13982;DHT22;7065;50.880;5.502;2022-09-09T05:11:23;14.80;99.90
13982;DHT22;7065;50.880;5.502;2022-09-09T05:13:50;14.80;99.90
13982;DHT22;7065;50.880;5.502;2022-09-09T05:16:16;14.80;99.90
13982;DHT22;7065;50.880;5.502;2022-09-09T05:18:42;14.80;99.90
13982;DHT22;7065;50.880;5.502;2022-09-09T05:21:09;14.80;99.90
13982;DHT22;7065;50.880;5.502;2022-09-09T05:23:36;14.90;99.90
13982;DHT22;7065;50.880;5.502;2022-09-09T05:26:02;14.90;99.90
13982;DHT22;7065;50.880;5.502;2022-09-09T05:28:29;15.00;99.90
13982;DHT22;7065;50.880;5.502;2022-09-09T05:31:04;15.00;99.90
13982;DHT22;7065;50.880;5.502;2022-09-09T05:33:31;15.00;99.90
13982;DHT22;7065;50.880;5.502;2022-09-09T05:35:58;15.10;99.90
13982;DHT22;7065;50.880;5.502;2022-09-09T05:38:25;15.10;99.90
13982;DHT22;7065;50.880;5.502;2022-09-09T05:40:51;15.10;99.90
13982;DHT22;7065;50.880;5.502;2022-09-09T05:43:19;15.10;99.90
13982;DHT22;7065;50.880;5.502;2022-09-09T05:45:46;15.20;99.90
13982;DHT22;7065;50.880;5.502;2022-09-09T05:48:14;15.20;99.90
13982;DHT22;7065;50.880;5.502;2022-09-09T05:50:41;15.20;99.90
13982;DHT22;7065;50.880;5.502;2022-09-09T05:53:08;15.20;99.90
13982;DHT22;7065;50.880;5.502;2022-09-09T05:55:34;15.20;99.90
13982;DHT22;7065;50.880;5.502;2022-09-09T05:57:59;15.30;99.90
13982;DHT22;7065;50.880;5.502;2022-09-09T06:00:26;15.30;99.90
13982;DHT22;7065;50.880;5.502;2022-09-09T06:02:52;15.30;99.90
13982;DHT22;7065;50.880;5.502;2022-09-09T06:05:19;15.30;99.90
13982;DHT22;7065;50.880;5.502;2022-09-09T06:07:45;15.30;99.90
13982;DHT22;7065;50.880;5.502;2022-09-09T06:10:11;15.40;99.90
13982;DHT22;7065;50.880;5.502;2022-09-09T06:12:39;15.40;99.90
13982;DHT22;7065;50.880;5.502;2022-09-09T06:15:06;15.50;99.90
13982;DHT22;7065;50.880;5.502;2022-09-09T06:17:32;15.50;99.90
13982;DHT22;7065;50.880;5.502;2022-09-09T06:19:58;15.50;99.90
13982;DHT22;7065;50.880;5.502;2022-09-09T06:22:24;15.50;99.90
13982;DHT22;7065;50.880;5.502;2022-09-09T06:24:50;15.50;99.90
13982;DHT22;7065;50.880;5.502;2022-09-09T06:27:17;15.60;99.90
13982;DHT22;7065;50.880;5.502;2022-09-09T06:29:42;15.60;99.90
13982;DHT22;7065;50.880;5.502;2022-09-09T06:32:08;15.60;99.90
13982;DHT22;7065;50.880;5.502;2022-09-09T06:34:34;15.70;99.90
13982;DHT22;7065;50.880;5.502;2022-09-09T06:37:00;15.70;99.90
13982;DHT22;7065;50.880;5.502;2022-09-09T06:39:27;15.70;99.90
13982;DHT22;7065;50.880;5.502;2022-09-09T06:41:52;15.70;99.90
13982;DHT22;7065;50.880;5.502;2022-09-09T06:44:18;15.80;99.90
13982;DHT22;7065;50.880;5.502;2022-09-09T06:46:44;15.80;99.90
13982;DHT22;7065;50.880;5.502;2022-09-09T06:49:12;15.80;99.90
13982;DHT22;7065;50.880;5.502;2022-09-09T06:51:39;15.80;99.90
13982;DHT22;7065;50.880;5.502;2022-09-09T06:54:09;15.70;99.90
13982;DHT22;7065;50.880;5.502;2022-09-09T06:56:37;15.70;99.90
13982;DHT22;7065;50.880;5.502;2022-09-09T06:59:06;15.70;99.90
13982;DHT22;7065;50.880;5.502;2022-09-09T07:01:39;15.70;99.90
13982;DHT22;7065;50.880;5.502;2022-09-09T07:04:13;15.70;99.90
13982;DHT22;7065;50.880;5.502;2022-09-09T07:06:44;15.80;99.90
13982;DHT22;7065;50.880;5.502;2022-09-09T07:09:13;15.90;99.90
13982;DHT22;7065;50.880;5.502;2022-09-09T07:11:46;16.10;99.90
13982;DHT22;7065;50.880;5.502;2022-09-09T07:14:12;16.20;99.90
13982;DHT22;7065;50.880;5.502;2022-09-09T07:16:41;16.30;99.90
13982;DHT22;7065;50.880;5.502;2022-09-09T07:19:07;16.30;99.90
13982;DHT22;7065;50.880;5.502;2022-09-09T07:21:33;16.40;99.90
13982;DHT22;7065;50.880;5.502;2022-09-09T07:23:59;16.40;99.90
13982;DHT22;7065;50.880;5.502;2022-09-09T07:26:28;16.40;99.90
13982;DHT22;7065;50.880;5.502;2022-09-09T07:28:54;16.50;99.90
13982;DHT22;7065;50.880;5.502;2022-09-09T07:31:24;16.50;99.90
13982;DHT22;7065;50.880;5.502;2022-09-09T07:33:50;16.50;99.90
13982;DHT22;7065;50.880;5.502;2022-09-09T07:38:48;16.50;99.90
13982;DHT22;7065;50.880;5.502;2022-09-09T07:41:21;16.50;99.90
13982;DHT22;7065;50.880;5.502;2022-09-09T07:43:48;16.60;99.90
13982;DHT22;7065;50.880;5.502;2022-09-09T07:46:16;16.60;99.90
13982;DHT22;7065;50.880;5.502;2022-09-09T07:48:50;16.60;99.90
13982;DHT22;7065;50.880;5.502;2022-09-09T07:51:22;16.70;99.90
13982;DHT22;7065;50.880;5.502;2022-09-09T07:53:51;16.70;99.90
13982;DHT22;7065;50.880;5.502;2022-09-09T07:56:18;16.80;99.90
13982;DHT22;7065;50.880;5.502;2022-09-09T07:58:47;16.80;99.90
13982;DHT22;7065;50.880;5.502;2022-09-09T08:01:19;16.90;99.90
13982;DHT22;7065;50.880;5.502;2022-09-09T08:03:46;17.00;99.90
13982;DHT22;7065;50.880;5.502;2022-09-09T08:06:13;17.10;99.90
13982;DHT22;7065;50.880;5.502;2022-09-09T08:08:39;17.20;99.90
13982;DHT22;7065;50.880;5.502;2022-09-09T08:11:12;17.40;99.90
13982;DHT22;7065;50.880;5.502;2022-09-09T08:13:40;17.40;99.90
13982;DHT22;7065;50.880;5.502;2022-09-09T08:16:09;17.40;99.90
13982;DHT22;7065;50.880;5.502;2022-09-09T08:18:35;17.40;99.90
13982;DHT22;7065;50.880;5.502;2022-09-09T08:21:15;17.40;99.90
13982;DHT22;7065;50.880;5.502;2022-09-09T08:23:43;17.40;99.90
13982;DHT22;7065;50.880;5.502;2022-09-09T08:26:14;17.30;99.90
13982;DHT22;7065;50.880;5.502;2022-09-09T08:28:41;17.30;99.90
13982;DHT22;7065;50.880;5.502;2022-09-09T08:31:13;17.20;99.90
13982;DHT22;7065;50.880;5.502;2022-09-09T08:33:40;17.20;99.90
13982;DHT22;7065;50.880;5.502;2022-09-09T08:36:08;17.20;99.90
13982;DHT22;7065;50.880;5.502;2022-09-09T08:38:35;17.20;99.90
13982;DHT22;7065;50.880;5.502;2022-09-09T08:41:14;17.20;99.90
13982;DHT22;7065;50.880;5.502;2022-09-09T08:43:42;17.20;99.90
13982;DHT22;7065;50.880;5.502;2022-09-09T08:46:46;17.20;99.90
13982;DHT22;7065;50.880;5.502;2022-09-09T08:52:12;17.20;99.90
13982;DHT22;7065;50.880;5.502;2022-09-09T08:54:41;17.20;99.90
13982;DHT22;7065;50.880;5.502;2022-09-09T08:57:14;17.30;99.90
13982;DHT22;7065;50.880;5.502;2022-09-09T08:59:40;17.20;99.90
13982;DHT22;7065;50.880;5.502;2022-09-09T09:02:23;17.30;99.90
13982;DHT22;7065;50.880;5.502;2022-09-09T09:07:29;17.30;99.90
13982;DHT22;7065;50.880;5.502;2022-09-09T09:12:36;17.20;99.90
13982;DHT22;7065;50.880;5.502;2022-09-09T09:15:16;17.20;99.90
13982;DHT22;7065;50.880;5.502;2022-09-09T09:17:43;17.20;99.90
13982;DHT22;7065;50.880;5.502;2022-09-09T09:20:13;17.20;99.90
13982;DHT22;7065;50.880;5.502;2022-09-09T09:22:51;17.20;99.90
13982;DHT22;7065;50.880;5.502;2022-09-09T09:25:23;17.30;99.90
13982;DHT22;7065;50.880;5.502;2022-09-09T09:31:03;17.50;99.90
13982;DHT22;7065;50.880;5.502;2022-09-09T09:33:32;17.50;99.90
13982;DHT22;7065;50.880;5.502;2022-09-09T09:35:59;17.50;99.90
13982;DHT22;7065;50.880;5.502;2022-09-09T09:38:27;17.40;99.90
13982;DHT22;7065;50.880;5.502;2022-09-09T09:40:58;17.30;99.90
13982;DHT22;7065;50.880;5.502;2022-09-09T09:45:55;17.40;99.90
13982;DHT22;7065;50.880;5.502;2022-09-09T09:48:23;17.40;99.90
13982;DHT22;7065;50.880;5.502;2022-09-09T09:50:50;17.40;99.90
13982;DHT22;7065;50.880;5.502;2022-09-09T09:53:32;17.40;99.90
13982;DHT22;7065;50.880;5.502;2022-09-09T09:56:02;17.40;99.90
13982;DHT22;7065;50.880;5.502;2022-09-09T09:58:36;17.50;99.90
13982;DHT22;7065;50.880;5.502;2022-09-09T10:01:26;17.50;99.90
13982;DHT22;7065;50.880;5.502;2022-09-09T10:04:14;17.60;99.90
13982;DHT22;7065;50.880;5.502;2022-09-09T10:06:42;17.70;99.90
13982;DHT22;7065;50.880;5.502;2022-09-09T10:09:30;17.70;99.90
13982;DHT22;7065;50.880;5.502;2022-09-09T10:23:58;17.90;99.90
13982;DHT22;7065;50.880;5.502;2022-09-09T10:26:12;17.90;99.90
13982;DHT22;7065;50.880;5.502;2022-09-09T10:40:36;17.30;99.90
13982;DHT22;7065;50.880;5.502;2022-09-09T10:46:04;16.80;99.90
13982;DHT22;7065;50.880;5.502;2022-09-09T10:48:54;16.70;99.90
13982;DHT22;7065;50.880;5.502;2022-09-09T10:54:29;16.60;99.90
13982;DHT22;7065;50.880;5.502;2022-09-09T10:57:03;16.60;99.90
13982;DHT22;7065;50.880;5.502;2022-09-09T10:59:46;16.60;99.90
13982;DHT22;7065;50.880;5.502;2022-09-09T11:02:27;16.70;99.90
13982;DHT22;7065;50.880;5.502;2022-09-09T11:07:39;17.00;99.90
13982;DHT22;7065;50.880;5.502;2022-09-09T11:13:11;17.30;99.90
13982;DHT22;7065;50.880;5.502;2022-09-09T11:15:50;17.40;99.90
13982;DHT22;7065;50.880;5.502;2022-09-09T11:18:21;17.60;99.90
13982;DHT22;7065;50.880;5.502;2022-09-09T11:20:53;17.60;99.90
13982;DHT22;7065;50.880;5.502;2022-09-09T11:23:27;17.80;99.90
13982;DHT22;7065;50.880;5.502;2022-09-09T11:25:58;17.90;99.90
13982;DHT22;7065;50.880;5.502;2022-09-09T11:37:02;18.10;99.90
13982;DHT22;7065;50.880;5.502;2022-09-09T11:42:34;18.10;99.90
13982;DHT22;7065;50.880;5.502;2022-09-09T11:45:24;18.00;99.90
13982;DHT22;7065;50.880;5.502;2022-09-09T11:47:59;18.00;99.90
13982;DHT22;7065;50.880;5.502;2022-09-09T11:52:51;18.00;99.90
13982;DHT22;7065;50.880;5.502;2022-09-09T11:55:30;18.00;99.90
13982;DHT22;7065;50.880;5.502;2022-09-09T12:00:36;18.00;99.90
13982;DHT22;7065;50.880;5.502;2022-09-09T12:08:46;18.30;99.90
13982;DHT22;7065;50.880;5.502;2022-09-09T12:11:24;18.30;99.90
13982;DHT22;7065;50.880;5.502;2022-09-09T12:13:56;18.30;99.90
13982;DHT22;7065;50.880;5.502;2022-09-09T12:16:34;18.20;99.90
13982;DHT22;7065;50.880;5.502;2022-09-09T12:19:15;18.10;99.90
13982;DHT22;7065;50.880;5.502;2022-09-09T12:24:13;18.00;99.90
13982;DHT22;7065;50.880;5.502;2022-09-09T12:29:23;18.10;99.90
13982;DHT22;7065;50.880;5.502;2022-09-09T12:40:28;16.20;99.90
13982;DHT22;7065;50.880;5.502;2022-09-09T12:42:55;15.60;99.90
13982;DHT22;7065;50.880;5.502;2022-09-09T12:45:23;15.20;99.90
13982;DHT22;7065;50.880;5.502;2022-09-09T12:50:36;15.00;99.90
13982;DHT22;7065;50.880;5.502;2022-09-09T12:56:08;15.30;99.90
13982;DHT22;7065;50.880;5.502;2022-09-09T12:58:37;15.40;99.90
13982;DHT22;7065;50.880;5.502;2022-09-09T13:01:04;15.50;99.90
13982;DHT22;7065;50.880;5.502;2022-09-09T13:03:32;15.60;99.90
13982;DHT22;7065;50.880;5.502;2022-09-09T13:06:11;15.70;99.90
13982;DHT22;7065;50.880;5.502;2022-09-09T13:08:37;15.90;99.90
13982;DHT22;7065;50.880;5.502;2022-09-09T13:11:09;16.10;99.90
13982;DHT22;7065;50.880;5.502;2022-09-09T13:13:38;16.20;99.90
13982;DHT22;7065;50.880;5.502;2022-09-09T13:16:06;16.40;99.90
13982;DHT22;7065;50.880;5.502;2022-09-09T13:18:41;16.60;99.90
13982;DHT22;7065;50.880;5.502;2022-09-09T13:21:07;16.80;99.90
13982;DHT22;7065;50.880;5.502;2022-09-09T13:23:35;17.00;99.90
13982;DHT22;7065;50.880;5.502;2022-09-09T13:26:05;17.10;99.90
13982;DHT22;7065;50.880;5.502;2022-09-09T13:28:31;17.30;99.90
13982;DHT22;7065;50.880;5.502;2022-09-09T13:31:18;17.40;99.90
13982;DHT22;7065;50.880;5.502;2022-09-09T13:33:45;17.50;99.90
13982;DHT22;7065;50.880;5.502;2022-09-09T13:36:12;17.50;99.90
13982;DHT22;7065;50.880;5.502;2022-09-09T13:41:43;17.70;99.90
13982;DHT22;7065;50.880;5.502;2022-09-09T13:44:25;17.90;99.90
13982;DHT22;7065;50.880;5.502;2022-09-09T13:47:05;18.20;99.90
13982;DHT22;7065;50.880;5.502;2022-09-09T13:49:31;18.20;99.90
13982;DHT22;7065;50.880;5.502;2022-09-09T13:54:33;18.20;99.90
13982;DHT22;7065;50.880;5.502;2022-09-09T13:56:59;18.10;99.90
13982;DHT22;7065;50.880;5.502;2022-09-09T13:59:27;18.10;99.90
13982;DHT22;7065;50.880;5.502;2022-09-09T14:01:53;18.30;99.90
13982;DHT22;7065;50.880;5.502;2022-09-09T14:04:19;18.40;99.90
13982;DHT22;7065;50.880;5.502;2022-09-09T14:06:46;18.40;99.90
13982;DHT22;7065;50.880;5.502;2022-09-09T14:09:15;18.30;99.90
13982;DHT22;7065;50.880;5.502;2022-09-09T14:11:42;18.30;99.90
13982;DHT22;7065;50.880;5.502;2022-09-09T14:14:13;18.40;99.90
13982;DHT22;7065;50.880;5.502;2022-09-09T14:16:39;18.50;99.90
13982;DHT22;7065;50.880;5.502;2022-09-09T14:19:05;18.60;99.90
13982;DHT22;7065;50.880;5.502;2022-09-09T14:21:31;18.70;99.90
13982;DHT22;7065;50.880;5.502;2022-09-09T14:24:00;18.90;99.90
13982;DHT22;7065;50.880;5.502;2022-09-09T14:26:25;19.10;99.90
13982;DHT22;7065;50.880;5.502;2022-09-09T14:28:51;19.30;99.90
13982;DHT22;7065;50.880;5.502;2022-09-09T14:31:17;19.60;99.90
13982;DHT22;7065;50.880;5.502;2022-09-09T14:33:44;19.80;99.90
13982;DHT22;7065;50.880;5.502;2022-09-09T14:36:10;19.80;99.90
13982;DHT22;7065;50.880;5.502;2022-09-09T14:38:37;19.80;99.90
13982;DHT22;7065;50.880;5.502;2022-09-09T14:41:10;19.70;99.90
13982;DHT22;7065;50.880;5.502;2022-09-09T14:43:38;19.50;99.90
13982;DHT22;7065;50.880;5.502;2022-09-09T14:46:12;19.30;99.90
13982;DHT22;7065;50.880;5.502;2022-09-09T14:48:38;19.20;99.90
13982;DHT22;7065;50.880;5.502;2022-09-09T14:51:14;19.20;99.90
13982;DHT22;7065;50.880;5.502;2022-09-09T14:53:41;19.30;99.90
13982;DHT22;7065;50.880;5.502;2022-09-09T14:56:17;19.30;99.90
13982;DHT22;7065;50.880;5.502;2022-09-09T14:58:44;19.30;99.90
13982;DHT22;7065;50.880;5.502;2022-09-09T15:01:12;19.30;99.90
13982;DHT22;7065;50.880;5.502;2022-09-09T15:03:39;19.30;99.90
13982;DHT22;7065;50.880;5.502;2022-09-09T15:06:15;19.30;99.90
13982;DHT22;7065;50.880;5.502;2022-09-09T15:08:42;19.60;99.90
13982;DHT22;7065;50.880;5.502;2022-09-09T15:11:10;19.70;99.90
13982;DHT22;7065;50.880;5.502;2022-09-09T15:13:40;19.70;99.90
13982;DHT22;7065;50.880;5.502;2022-09-09T15:16:07;19.90;99.90
13982;DHT22;7065;50.880;5.502;2022-09-09T15:18:33;20.00;99.90
13982;DHT22;7065;50.880;5.502;2022-09-09T15:21:03;19.90;99.90
13982;DHT22;7065;50.880;5.502;2022-09-09T15:23:34;19.80;99.90
13982;DHT22;7065;50.880;5.502;2022-09-09T15:26:01;20.00;99.90
13982;DHT22;7065;50.880;5.502;2022-09-09T15:28:26;20.10;99.90
13982;DHT22;7065;50.880;5.502;2022-09-09T15:30:53;20.20;99.90
13982;DHT22;7065;50.880;5.502;2022-09-09T15:33:21;20.20;99.90
13982;DHT22;7065;50.880;5.502;2022-09-09T15:35:47;20.30;99.90
13982;DHT22;7065;50.880;5.502;2022-09-09T15:38:15;20.20;99.90
13982;DHT22;7065;50.880;5.502;2022-09-09T15:40:42;19.90;99.90
13982;DHT22;7065;50.880;5.502;2022-09-09T15:43:08;19.70;99.90
13982;DHT22;7065;50.880;5.502;2022-09-09T15:45:36;19.50;99.90
13982;DHT22;7065;50.880;5.502;2022-09-09T15:48:03;19.50;99.90
13982;DHT22;7065;50.880;5.502;2022-09-09T15:50:30;19.60;99.90
13982;DHT22;7065;50.880;5.502;2022-09-09T15:52:59;19.50;99.90
13982;DHT22;7065;50.880;5.502;2022-09-09T15:55:25;19.50;99.90
13982;DHT22;7065;50.880;5.502;2022-09-09T15:57:51;19.70;99.90
13982;DHT22;7065;50.880;5.502;2022-09-09T16:00:18;19.90;99.90
13982;DHT22;7065;50.880;5.502;2022-09-09T16:02:46;20.00;99.90
13982;DHT22;7065;50.880;5.502;2022-09-09T16:05:12;20.00;99.90
13982;DHT22;7065;50.880;5.502;2022-09-09T16:07:38;20.00;99.90
13982;DHT22;7065;50.880;5.502;2022-09-09T16:10:03;20.00;99.90
13982;DHT22;7065;50.880;5.502;2022-09-09T16:12:29;19.90;99.90
13982;DHT22;7065;50.880;5.502;2022-09-09T16:14:55;19.80;99.90
13982;DHT22;7065;50.880;5.502;2022-09-09T16:17:21;19.70;99.90
13982;DHT22;7065;50.880;5.502;2022-09-09T16:19:47;19.50;99.90
13982;DHT22;7065;50.880;5.502;2022-09-09T16:22:12;19.40;99.90
13982;DHT22;7065;50.880;5.502;2022-09-09T16:24:40;19.20;99.90
13982;DHT22;7065;50.880;5.502;2022-09-09T16:27:07;18.80;99.90
13982;DHT22;7065;50.880;5.502;2022-09-09T16:29:32;18.30;99.90
13982;DHT22;7065;50.880;5.502;2022-09-09T16:31:58;17.80;99.90
13982;DHT22;7065;50.880;5.502;2022-09-09T16:34:25;17.50;99.90
13982;DHT22;7065;50.880;5.502;2022-09-09T16:36:51;17.40;99.90
13982;DHT22;7065;50.880;5.502;2022-09-09T16:39:20;17.20;99.90
13982;DHT22;7065;50.880;5.502;2022-09-09T16:41:47;17.20;99.90
13982;DHT22;7065;50.880;5.502;2022-09-09T16:44:15;17.10;99.90
13982;DHT22;7065;50.880;5.502;2022-09-09T16:46:43;17.10;99.90
13982;DHT22;7065;50.880;5.502;2022-09-09T16:49:11;17.00;99.90
13982;DHT22;7065;50.880;5.502;2022-09-09T16:51:40;17.00;99.90
13982;DHT22;7065;50.880;5.502;2022-09-09T16:54:07;17.00;99.90
13982;DHT22;7065;50.880;5.502;2022-09-09T16:56:36;17.10;99.90
13982;DHT22;7065;50.880;5.502;2022-09-09T16:59:14;17.10;99.90
13982;DHT22;7065;50.880;5.502;2022-09-09T17:01:43;17.10;99.90
13982;DHT22;7065;50.880;5.502;2022-09-09T17:04:14;17.10;99.90
13982;DHT22;7065;50.880;5.502;2022-09-09T17:06:41;17.20;99.90
13982;DHT22;7065;50.880;5.502;2022-09-09T17:09:09;17.20;99.90
13982;DHT22;7065;50.880;5.502;2022-09-09T17:11:36;17.20;99.90
13982;DHT22;7065;50.880;5.502;2022-09-09T17:14:04;17.20;99.90
13982;DHT22;7065;50.880;5.502;2022-09-09T17:16:32;17.20;99.90
13982;DHT22;7065;50.880;5.502;2022-09-09T17:19:00;17.20;99.90
13982;DHT22;7065;50.880;5.502;2022-09-09T17:21:30;17.20;99.90
13982;DHT22;7065;50.880;5.502;2022-09-09T17:23:56;17.20;99.90
13982;DHT22;7065;50.880;5.502;2022-09-09T17:26:28;17.10;99.90
13982;DHT22;7065;50.880;5.502;2022-09-09T17:28:55;17.10;99.90
13982;DHT22;7065;50.880;5.502;2022-09-09T17:31:24;17.10;99.90
13982;DHT22;7065;50.880;5.502;2022-09-09T17:33:51;17.10;99.90
13982;DHT22;7065;50.880;5.502;2022-09-09T17:36:27;17.10;99.90
13982;DHT22;7065;50.880;5.502;2022-09-09T17:38:54;17.10;99.90
13982;DHT22;7065;50.880;5.502;2022-09-09T17:41:23;17.10;99.90
13982;DHT22;7065;50.880;5.502;2022-09-09T17:43:49;17.10;99.90
13982;DHT22;7065;50.880;5.502;2022-09-09T17:46:18;17.10;99.90
13982;DHT22;7065;50.880;5.502;2022-09-09T17:48:45;17.00;99.90
13982;DHT22;7065;50.880;5.502;2022-09-09T17:51:14;17.00;99.90
13982;DHT22;7065;50.880;5.502;2022-09-09T17:53:46;17.00;99.90
13982;DHT22;7065;50.880;5.502;2022-09-09T17:56:17;17.00;99.90
13982;DHT22;7065;50.880;5.502;2022-09-09T17:58:43;16.90;99.90
13982;DHT22;7065;50.880;5.502;2022-09-09T18:01:20;16.90;99.90
13982;DHT22;7065;50.880;5.502;2022-09-09T18:03:49;16.90;99.90
13982;DHT22;7065;50.880;5.502;2022-09-09T18:06:23;16.90;99.90
13982;DHT22;7065;50.880;5.502;2022-09-09T18:08:51;16.90;99.90
13982;DHT22;7065;50.880;5.502;2022-09-09T18:11:18;16.90;99.90
13982;DHT22;7065;50.880;5.502;2022-09-09T18:13:56;16.90;99.90
13982;DHT22;7065;50.880;5.502;2022-09-09T18:16:23;16.90;99.90
13982;DHT22;7065;50.880;5.502;2022-09-09T18:18:51;16.90;99.90
13982;DHT22;7065;50.880;5.502;2022-09-09T18:21:18;16.80;99.90
13982;DHT22;7065;50.880;5.502;2022-09-09T18:23:45;16.80;99.90